Las horas y fechas están en horario UTC
Sumar 1 hora en el horario de Invierno y 2 horas en el de Verano

Informes METAR cercanos

 

LEZL - Sevilla (civ/Mil, Spain
Distance from station: NNE 24km
Actualización: 05/04/2020 10:30
Muy nuboso
Muy nuboso
 Viento del NE
Viento: NE 11 km/h
Temperatura: 15°C
Rocío: 11°C
Humedad: 77%
Barómetro: 1017 hPa
Clouds: Muy nuboso
Visibility: 10 km
Cloud details: Muy nuboso 1372 m
2020/04/05 08:30 LEZL 050830Z AUTO 05006KT 9999 BKN045 15/11 Q1017
LEMO - Moron (sp-Usafb), Spain
Distance from station: E 38km
Actualización: 05/04/2020 11:00
Despejado
Despejado
 Viento del varies
Viento: varies 2 km/h
Temperatura: 16°C
Rocío: 8°C
Humedad: 59%
Barómetro: 1017 hPa
Resumen: Despejado
Visibility: greater than 10 km
2020/04/05 09:00 LEMO 050900Z VRB01KT CAVOK 16/08 Q1017 NOSIG
LEJR - Jerez (civ/Mil), Spain
Distance from station: S 53km
Actualización: 05/04/2020 11:00
Cubierto
Cubierto
 Viento del SSE
Viento: SSE 28 km/h
Temperatura: 17°C
Rocío: 11°C
Humedad: 68%
Barómetro: 1017 hPa
Clouds: Cubierto
Visibility: 10 km
Cloud details: Parcialmente nuboso 1402 m
Cubierto 1524 m
2020/04/05 09:00 LEJR 050900Z AUTO 15015KT 110V180 9999 SCT046 OVC050 17/11 Q1017
 
LERT - Rota Naval Stati, Spain
Distance from station: SSO 71km
Actualización: 05/04/2020 10:00
Despejado
Despejado
 Viento del SE
Viento: SE 26 km/h
Temperatura: 16°C
Rocío: 12°C
Humedad: 77%
Barómetro: 1017 hPa
Resumen: Despejado
Visibility: greater than 10 km
2020/04/05 08:00 LERT 050800Z 14014KT 110V170 CAVOK 16/12 Q1017 NOSIG
LEBA - Cordoba Airport, Spain
Distance from station: ENE 128km
Actualización: 05/04/2020 10:30
Despejado
Despejado
 Viento del E
Viento: E 7 km/h
Temperatura: 13°C
Rocío: 9°C
Humedad: 77%
Barómetro: 1018 hPa
Resumen: Despejado
Visibility: greater than 10 km
2020/04/05 08:30 LEBA 050830Z AUTO 09004KT CAVOK 13/09 Q1018
LXGB - Gibraltar (civ/M, Gibraltar
Distance from station: SSE 137km
Actualización: 05/04/2020 10:50
Muy nuboso
Muy nuboso
 Viento del E
Viento: E 26 km/h
Temperatura: 17°C
Rocío: 13°C
Humedad: 77%
Barómetro: 1019 hPa
Clouds: Muy nuboso
Visibility: 10 km
Cloud details: Muy nuboso 792 m
Muy nuboso 6096 m
2020/04/05 08:50 LXGB 050850Z 08014KT 9999 BKN026 BKN200 17/13 Q1019 RMK BLU
 
LEMG - Malaga (civ/Mil), Spain
Distance from station: ESE 150km
Actualización: 05/04/2020 10:30
Few Clouds
Few Clouds
 Viento del ONO
Viento: ONO 7 km/h
Temperatura: 14°C
Rocío: 11°C
Humedad: 82%
Barómetro: 1020 hPa
Clouds: Few Clouds
Visibility: 10 km
Cloud details: Few Clouds 914 m
2020/04/05 08:30 LEMG 050830Z 29004KT 260V320 9999 FEW030 14/11 Q1020 NOSIG
GMTT - Tangier/Boukhalf, Morocco
Distance from station: S 169km
Actualización: 05/04/2020 10:30
Despejado
Despejado
 Viento del E
Viento: E 15 km/h
Temperatura: 18°C
Rocío: 14°C
Humedad: 78%
Barómetro: 1017 hPa
Resumen: Despejado
Visibility: greater than 10 km
2020/04/05 08:30 GMTT 050830Z AUTO 09008KT 060V120 CAVOK 18/14 Q1017 NOSIG
LPFR - Faro, Portugal
Distance from station: O 172km
Actualización: 05/04/2020 10:30
Muy nuboso
Muy nuboso
 Viento del SE
Viento: SE 22 km/h
Temperatura: 17°C
Rocío: 16°C
Humedad: 94%
Barómetro: 1015 hPa
Clouds: Muy nuboso
Visibility: 10 km
Cloud details: Parcialmente nuboso 366 m
Muy nuboso 610 m
2020/04/05 08:30 LPFR 050830Z 14012KT 9999 SCT012 BKN020 17/16 Q1015
 
LPBJ - Beja (por/Ger-Af, Portugal
Distance from station: ONO 192km
Actualización: 05/04/2020 10:00
Nearby fog, Cubierto
Nearby fog, Cubierto
 Viento del SSE
Viento: SSE 26 km/h
Temperatura: 15°C
Rocío: 13°C
Humedad: 88%
Barómetro: 1014 hPa
Resumen: Nearby Fog
Clouds: Cubierto
Visibility: 10 km
Cloud details: Cubierto 213 m
2020/04/05 08:00 LPBJ 050800Z 15014KT 9999 VCFG OVC007 15/13 Q1014
LEBZ - Talavera Ab/Bada, Spain
Distance from station: NNO 194km
Actualización: 05/04/2020 10:00
Despejado
Despejado
 Viento del E
Viento: E 20 km/h
Temperatura: 13°C
Rocío: 9°C
Humedad: 77%
Barómetro: 1015 hPa
Resumen: Despejado
Visibility: greater than 10 km
2020/04/05 08:00 LEBZ 050800Z AUTO 10011KT 080V140 CAVOK 13/09 Q1015
LEMD - Madrid/Barajas, Spain
Distance from station: NE 415km
Actualización: 05/04/2020 10:30
Despejado
Despejado
 Viento del S
Viento: S 7 km/h
Temperatura: 12°C
Rocío: 6°C
Humedad: 67%
Barómetro: 1019 hPa
Resumen: Despejado
Visibility: greater than 10 km
2020/04/05 08:30 LEMD 050830Z 18004KT 130V240 CAVOK 12/06 Q1019 NOSIG